Time;durP1;ratioP1;P1;durP2;ratioP2;P2;SDS_P1;SDS_P2;PMS_P1;PMS_P2;Temp;Humidity;BMP_temperature;BMP_pressure;BME280_temperature;BME280_humidity;BME280_pressure;Samples;Min_cycle;Max_cycle;Signal;HPM_P1;HPM_P2
2021/06/30 00:02:25;;;;;;;2.05;1.23;;;;;;;17.95;93.25;100250.34;4969477;28;20548;-80
2021/06/30 00:04:53;;;;;;;3.92;1.60;;;;;;;17.88;93.45;100256.78;4957645;28;20065;-80
2021/06/30 00:07:22;;;;;;;2.25;1.42;;;;;;;17.84;93.90;100250.78;4970980;28;20052;-81
2021/06/30 00:09:49;;;;;;;2.33;2.20;;;;;;;17.80;94.60;100248.34;4972985;28;20053;-81
2021/06/30 00:12:17;;;;;;;3.33;2.88;;;;;;;17.73;95.66;100246.91;4970936;28;20046;-80
2021/06/30 00:14:45;;;;;;;4.80;3.22;;;;;;;17.71;95.24;100252.28;4968176;28;20062;-81
2021/06/30 00:17:13;;;;;;;3.67;3.38;;;;;;;17.69;95.58;100255.00;4956614;28;20060;-83
2021/06/30 00:19:41;;;;;;;3.22;2.97;;;;;;;17.66;95.72;100260.44;4954810;28;20042;-81
2021/06/30 00:22:10;;;;;;;5.30;3.78;;;;;;;17.66;96.01;100252.50;4966580;28;20936;-81
2021/06/30 00:24:36;;;;;;;7.20;4.03;;;;;;;17.64;95.98;100259.63;4967150;28;20050;-82
2021/06/30 00:27:03;;;;;;;5.10;4.32;;;;;;;17.64;96.03;100251.69;4981829;28;20042;-83
2021/06/30 00:29:31;;;;;;;5.75;5.18;;;;;;;17.65;96.67;100242.81;4970145;28;20053;-80
2021/06/30 00:31:58;;;;;;;5.78;5.22;;;;;;;17.64;96.37;100241.09;4967922;28;20050;-83
2021/06/30 00:34:25;;;;;;;6.78;5.10;;;;;;;17.65;96.68;100239.31;4970334;28;20058;-83
2021/06/30 00:36:52;;;;;;;6.13;5.10;;;;;;;17.65;96.45;100236.66;4961579;28;20058;-81
2021/06/30 00:39:21;;;;;;;5.78;5.15;;;;;;;17.62;96.28;100228.88;4981107;28;20050;-83
2021/06/30 00:41:48;;;;;;;7.82;5.28;;;;;;;17.58;96.71;100233.44;4957436;28;20117;-82
2021/06/30 00:44:14;;;;;;;6.10;5.50;;;;;;;17.55;96.64;100236.22;4975376;28;20291;-81
2021/06/30 00:46:43;;;;;;;6.72;5.13;;;;;;;17.52;96.78;100237.22;4969362;28;20046;-83
2021/06/30 00:49:11;;;;;;;5.78;4.85;;;;;;;17.47;96.98;100235.69;4957080;28;20449;-82
2021/06/30 00:51:38;;;;;;;4.45;4.05;;;;;;;17.44;97.06;100238.47;4970034;28;20054;-80
2021/06/30 00:54:04;;;;;;;5.03;4.55;;;;;;;17.40;97.09;100237.75;4952011;28;20050;-82
2021/06/30 00:56:31;;;;;;;3.30;3.10;;;;;;;17.34;97.08;100240.69;4990437;28;20541;-83
2021/06/30 00:59:02;;;;;;;5.68;4.13;;;;;;;17.28;97.17;100235.66;4964545;28;20045;-81
2021/06/30 01:01:33;;;;;;;3.75;3.47;;;;;;;17.22;97.37;100230.63;4972795;28;20046;-82
2021/06/30 01:04:00;;;;;;;3.60;3.30;;;;;;;17.19;97.27;100234.25;4966820;28;20085;-80
2021/06/30 01:06:27;;;;;;;3.70;3.00;;;;;;;17.17;97.23;100231.69;4968616;28;20709;-81
2021/06/30 01:08:55;;;;;;;5.30;3.50;;;;;;;17.16;97.38;100229.97;4974836;28;20058;-82
2021/06/30 01:11:22;;;;;;;5.63;3.22;;;;;;;17.15;97.42;100224.75;4966398;28;20061;-83
2021/06/30 01:13:50;;;;;;;3.05;2.60;;;;;;;17.12;97.33;100224.88;4969711;28;20064;-84
2021/06/30 01:16:18;;;;;;;3.22;2.92;;;;;;;17.08;97.26;100226.81;4964311;28;20038;-81
2021/06/30 01:18:46;;;;;;;3.78;2.90;;;;;;;17.05;97.53;100221.63;4953256;28;20065;-82
2021/06/30 01:21:15;;;;;;;3.80;3.50;;;;;;;17.02;97.84;100222.63;4968230;28;20053;-83
2021/06/30 01:23:44;;;;;;;2.92;2.75;;;;;;;16.98;98.06;100222.81;4983811;28;20521;-83
2021/06/30 01:26:12;;;;;;;4.22;3.15;;;;;;;16.96;98.39;100216.72;4956832;28;20754;-82
2021/06/30 01:28:40;;;;;;;3.50;3.30;;;;;;;16.95;98.48;100222.97;4971334;28;20471;-81
2021/06/30 01:31:09;;;;;;;3.40;3.10;;;;;;;16.96;98.56;100228.19;4969706;28;20050;-82
2021/06/30 01:33:36;;;;;;;3.22;2.88;;;;;;;16.95;98.36;100225.63;4947411;28;20065;-81
2021/06/30 01:36:04;;;;;;;3.45;2.83;;;;;;;16.91;98.27;100227.53;4967189;28;20561;-82
2021/06/30 01:38:33;;;;;;;3.30;3.00;;;;;;;16.93;98.44;100224.81;4955665;28;20146;-81
2021/06/30 01:41:00;;;;;;;2.88;2.58;;;;;;;16.93;98.19;100225.66;4947352;28;20043;-81
2021/06/30 01:43:29;;;;;;;2.90;2.70;;;;;;;16.92;98.46;100228.38;4934351;28;20054;-82
2021/06/30 01:45:58;;;;;;;2.75;2.60;;;;;;;16.92;98.47;100236.28;4967604;28;20074;-81
2021/06/30 01:48:26;;;;;;;3.30;3.03;;;;;;;16.92;98.67;100228.38;4968377;28;20054;-81
2021/06/30 01:50:56;;;;;;;3.92;3.50;;;;;;;16.91;98.77;100226.63;4969775;28;20988;-82
2021/06/30 01:53:23;;;;;;;2.85;2.53;;;;;;;16.91;98.64;100232.81;4967360;28;20409;-81
2021/06/30 01:55:50;;;;;;;5.43;3.70;;;;;;;16.93;98.44;100227.44;4961682;28;20046;-83
2021/06/30 01:58:21;;;;;;;2.63;2.28;;;;;;;16.97;98.72;100242.25;4967028;28;20130;-82
2021/06/30 02:00:55;;;;;;;3.70;3.40;;;;;;;17.01;98.80;100241.19;4967454;28;20466;-81
2021/06/30 02:03:23;;;;;;;3.08;2.67;;;;;;;17.03;98.08;100236.72;4967965;28;20058;-81
2021/06/30 02:05:50;;;;;;;3.90;3.60;;;;;;;17.06;98.13;100241.00;4956351;28;20192;-82
2021/06/30 02:08:17;;;;;;;2.95;2.75;;;;;;;17.06;98.24;100249.78;4973573;28;20047;-81
2021/06/30 02:10:45;;;;;;;3.88;3.47;;;;;;;17.10;98.01;100250.53;4967601;28;20042;-82
2021/06/30 02:13:13;;;;;;;4.05;3.75;;;;;;;17.12;97.97;100249.53;4970697;28;20061;-82
2021/06/30 02:15:42;;;;;;;4.03;3.45;;;;;;;17.17;97.74;100255.50;4986710;28;20548;-82
2021/06/30 02:18:10;;;;;;;3.88;3.33;;;;;;;17.22;97.73;100246.50;4978781;28;20061;-81
2021/06/30 02:20:37;;;;;;;3.58;3.28;;;;;;;17.25;97.39;100246.34;4969670;28;20042;-81
2021/06/30 02:23:05;;;;;;;3.50;3.30;;;;;;;17.31;97.10;100254.03;4968893;28;20041;-81
2021/06/30 02:25:32;;;;;;;3.92;3.17;;;;;;;17.35;96.75;100248.56;4972907;28;20043;-81
2021/06/30 02:27:59;;;;;;;3.50;3.20;;;;;;;17.41;96.68;100251.84;4973273;28;20038;-82
2021/06/30 02:30:32;;;;;;;2.78;2.58;;;;;;;17.44;96.21;100255.25;4970021;28;20057;-80
2021/06/30 02:33:01;;;;;;;3.55;2.88;;;;;;;17.50;96.04;100265.53;4967579;28;20492;-80
2021/06/30 02:35:29;;;;;;;4.57;3.17;;;;;;;17.58;95.88;100267.00;4975539;28;20057;-82
2021/06/30 02:38:00;;;;;;;4.93;2.88;;;;;;;17.61;95.91;100259.78;4982978;28;20039;-81
2021/06/30 02:40:29;;;;;;;5.00;2.97;;;;;;;17.64;95.62;100261.44;4974203;28;20070;-83
2021/06/30 02:42:56;;;;;;;3.15;2.90;;;;;;;17.68;95.61;100249.78;4963485;28;20054;-81
2021/06/30 02:45:24;;;;;;;2.45;2.35;;;;;;;17.71;95.36;100251.41;4982935;28;20135;-82
2021/06/30 02:47:52;;;;;;;5.82;3.08;;;;;;;17.71;95.21;100239.03;4982468;28;20042;-82
2021/06/30 02:50:20;;;;;;;3.60;3.30;;;;;;;17.70;95.00;100237.31;4963597;28;20047;-83
2021/06/30 02:52:49;;;;;;;5.40;3.17;;;;;;;17.66;95.03;100235.72;4966962;28;20133;-82
2021/06/30 02:55:17;;;;;;;3.42;3.08;;;;;;;17.61;95.21;100230.66;4965186;28;20073;-82
2021/06/30 02:57:45;;;;;;;4.25;3.38;;;;;;;17.56;95.17;100226.50;4962590;28;20050;-81
2021/06/30 03:00:24;;;;;;;3.53;3.22;;;;;;;17.52;95.56;100223.13;4955207;28;20131;-82
2021/06/30 03:02:52;;;;;;;3.75;3.30;;;;;;;17.47;95.81;100223.34;4948186;28;20055;-81
2021/06/30 03:05:21;;;;;;;4.13;3.72;;;;;;;17.43;96.27;100226.16;4976167;28;21605;-82
2021/06/30 03:07:50;;;;;;;4.95;4.55;;;;;;;17.32;96.78;100218.72;4955227;28;20062;-83
2021/06/30 03:10:19;;;;;;;4.75;4.05;;;;;;;17.21;97.64;100219.19;4951659;28;20146;-82
2021/06/30 03:12:48;;;;;;;4.18;3.78;;;;;;;17.13;98.07;100216.00;4961370;28;20050;-81
2021/06/30 03:15:16;;;;;;;4.78;4.28;;;;;;;17.09;98.72;100209.13;4967878;28;20059;-82
2021/06/30 03:17:44;;;;;;;6.22;4.72;;;;;;;17.06;99.21;100214.56;4982069;28;20058;-81
2021/06/30 03:20:15;;;;;;;5.70;5.20;;;;;;;17.04;99.46;100209.34;4980780;28;20047;-83
2021/06/30 03:22:43;;;;;;;6.60;5.88;;;;;;;17.02;99.74;100205.91;4948756;28;20120;-82
2021/06/30 03:25:13;;;;;;;7.88;4.85;;;;;;;17.02;100.00;100208.53;4964432;28;20383;-83
2021/06/30 03:27:42;;;;;;;6.53;5.93;;;;;;;17.00;99.88;100205.97;4952959;28;20940;-83
2021/06/30 03:30:12;;;;;;;6.28;5.43;;;;;;;17.02;100.00;100219.97;4968457;28;20078;-82
2021/06/30 03:32:38;;;;;;;6.63;5.95;;;;;;;17.01;100.00;100210.34;4974895;28;20043;-82
2021/06/30 03:35:08;;;;;;;6.70;6.07;;;;;;;17.03;100.00;100212.91;4965238;28;20113;-82
2021/06/30 03:37:35;;;;;;;7.40;6.53;;;;;;;17.01;100.00;100223.56;4969044;28;20054;-84
2021/06/30 03:40:02;;;;;;;8.32;7.52;;;;;;;16.98;100.00;100220.19;4946834;28;1042295;-84
2021/06/30 03:42:29;;;;;;;10.45;8.05;;;;;;;16.98;100.00;100217.53;4987129;28;20053;-83
2021/06/30 03:44:56;;;;;;;10.68;8.75;;;;;;;16.96;100.00;100214.09;4956629;28;20054;-82
2021/06/30 03:47:24;;;;;;;10.23;7.78;;;;;;;16.94;100.00;100219.44;4986180;28;20053;-82
2021/06/30 03:49:52;;;;;;;12.20;9.02;;;;;;;16.95;100.00;100215.03;4976171;28;20047;-83
2021/06/30 03:52:19;;;;;;;9.93;8.90;;;;;;;16.96;100.00;100220.25;4970474;28;20046;-83
2021/06/30 03:54:47;;;;;;;10.70;6.53;;;;;;;16.96;100.00;100222.03;4986257;28;20442;-82
2021/06/30 03:57:15;;;;;;;11.27;8.75;;;;;;;16.95;100.00;100212.41;4987359;28;20090;-82
2021/06/30 03:59:41;;;;;;;10.60;8.43;;;;;;;16.93;100.00;100219.50;4968905;28;20049;-82
2021/06/30 04:02:08;;;;;;;13.40;8.10;;;;;;;16.89;100.00;100218.75;4967056;28;20054;-82
2021/06/30 04:04:35;;;;;;;11.40;9.95;;;;;;;16.87;100.00;100215.31;4972679;28;20057;-82
2021/06/30 04:07:01;;;;;;;14.60;9.75;;;;;;;16.89;100.00;100221.38;4960904;28;20049;-81
2021/06/30 04:09:29;;;;;;;11.82;9.07;;;;;;;16.91;100.00;100227.53;4976466;28;20159;-83
2021/06/30 04:11:56;;;;;;;19.73;12.68;;;;;;;16.93;100.00;100230.09;4973591;28;20110;-83
2021/06/30 04:14:23;;;;;;;15.75;12.00;;;;;;;16.94;100.00;100229.19;4989502;28;20057;-85
2021/06/30 04:16:51;;;;;;;12.80;10.90;;;;;;;16.96;100.00;100232.59;4998459;28;20109;-83
2021/06/30 04:19:20;;;;;;;17.65;13.57;;;;;;;17.02;100.00;100232.34;4991970;28;20054;-82
2021/06/30 04:21:51;;;;;;;18.23;13.30;;;;;;;17.03;100.00;100232.28;4993218;28;20099;-82
2021/06/30 04:24:19;;;;;;;19.15;13.90;;;;;;;17.03;100.00;100237.56;4970402;28;20055;-83
2021/06/30 04:26:45;;;;;;;20.25;14.57;;;;;;;17.01;100.00;100234.13;4989502;28;20046;-83
2021/06/30 04:29:12;;;;;;;27.60;14.50;;;;;;;17.02;100.00;100237.63;4974547;28;20060;-82
2021/06/30 04:31:39;;;;;;;20.55;14.32;;;;;;;17.01;100.00;100236.78;4978870;28;20046;-83
2021/06/30 04:34:06;;;;;;;22.67;14.02;;;;;;;17.05;100.00;100236.66;4962678;28;20089;-83
2021/06/30 04:36:35;;;;;;;30.58;15.75;;;;;;;17.03;100.00;100234.91;4976061;28;20663;-83
2021/06/30 04:39:02;;;;;;;25.67;17.30;;;;;;;17.01;100.00;100241.19;4973147;28;20045;-83
2021/06/30 04:41:32;;;;;;;29.85;17.38;;;;;;;17.02;100.00;100237.63;4975897;28;20061;-83
2021/06/30 04:43:59;;;;;;;21.98;16.42;;;;;;;17.03;100.00;100231.44;4972096;28;20061;-82
2021/06/30 04:46:26;;;;;;;27.15;16.77;;;;;;;17.03;100.00;100239.34;4959978;28;20130;-82
2021/06/30 04:48:55;;;;;;;27.70;16.50;;;;;;;17.04;100.00;100241.09;4975914;28;20042;-82
2021/06/30 04:51:29;;;;;;;29.58;17.35;;;;;;;17.10;100.00;100237.31;4973013;28;20114;-81
2021/06/30 04:53:56;;;;;;;26.52;17.63;;;;;;;17.15;100.00;100243.25;4973860;28;20049;-82
2021/06/30 04:56:29;;;;;;;26.95;18.52;;;;;;;17.17;100.00;100246.72;4972076;28;20660;-82
2021/06/30 04:58:57;;;;;;;22.60;15.90;;;;;;;17.23;100.00;100250.88;4975596;28;20072;-82
2021/06/30 05:01:27;;;;;;;29.23;18.77;;;;;;;17.27;100.00;100261.22;4973008;28;20056;-82
2021/06/30 05:04:01;;;;;;;27.48;18.63;;;;;;;17.30;100.00;100258.47;4975929;28;20046;-81
2021/06/30 05:06:28;;;;;;;33.78;20.75;;;;;;;17.37;100.00;100264.34;4966718;28;20496;-81
2021/06/30 05:08:55;;;;;;;29.63;19.25;;;;;;;17.40;100.00;100264.22;4959998;28;20049;-82
2021/06/30 05:11:24;;;;;;;28.80;16.30;;;;;;;17.39;100.00;100265.16;4976447;28;20049;-82
2021/06/30 05:13:51;;;;;;;31.00;17.67;;;;;;;17.41;100.00;100268.59;4986305;28;20044;-83
2021/06/30 05:16:17;;;;;;;28.27;16.95;;;;;;;17.43;100.00;100263.22;4969822;28;20046;-82
2021/06/30 05:18:44;;;;;;;29.92;18.75;;;;;;;17.46;100.00;100255.16;4978006;28;20493;-83
2021/06/30 05:21:13;;;;;;;25.85;17.42;;;;;;;17.48;100.00;100248.00;4977489;28;20137;-81
2021/06/30 05:23:44;;;;;;;21.27;15.25;;;;;;;17.47;100.00;100256.84;4954050;28;20675;-83
2021/06/30 05:26:10;;;;;;;23.25;15.32;;;;;;;17.52;100.00;100258.41;4978745;28;20587;-81
2021/06/30 05:28:41;;;;;;;20.40;15.68;;;;;;;17.59;100.00;100263.44;4960324;28;20515;-82
2021/06/30 05:31:10;;;;;;;25.27;15.40;;;;;;;17.59;99.54;100256.31;4979077;28;20058;-82
2021/06/30 05:33:39;;;;;;;24.77;14.90;;;;;;;17.60;99.66;100252.75;4970090;28;20050;-82
2021/06/30 05:36:07;;;;;;;23.17;15.95;;;;;;;17.60;99.27;100249.25;4959381;28;20054;-82
2021/06/30 05:38:34;;;;;;;22.95;14.73;;;;;;;17.62;99.06;100250.03;4973320;28;20066;-82
2021/06/30 05:41:02;;;;;;;22.95;15.00;;;;;;;17.64;99.14;100245.56;4974314;28;20075;-81
2021/06/30 05:43:31;;;;;;;22.25;15.10;;;;;;;17.67;98.56;100243.59;4957353;28;20753;-82
2021/06/30 05:46:01;;;;;;;20.42;14.48;;;;;;;17.74;98.09;100243.34;4971005;28;20082;-82
2021/06/30 05:48:29;;;;;;;23.00;14.88;;;;;;;17.76;98.26;100242.34;4971258;28;20047;-80
2021/06/30 05:50:56;;;;;;;25.60;14.27;;;;;;;17.74;97.95;100241.53;4972528;28;20501;-81
2021/06/30 05:53:25;;;;;;;21.35;13.40;;;;;;;17.77;97.47;100236.13;4969243;28;20046;-83
2021/06/30 05:55:56;;;;;;;22.08;14.23;;;;;;;17.77;97.35;100236.13;4957040;28;20043;-83
2021/06/30 05:58:23;;;;;;;23.85;13.88;;;;;;;17.76;96.92;100252.91;4979714;28;20049;-82
2021/06/30 06:00:51;;;;;;;17.20;13.52;;;;;;;17.78;96.73;100256.38;4954999;28;20600;-83
2021/06/30 06:03:18;;;;;;;17.48;13.13;;;;;;;17.79;96.89;100254.56;4968578;28;20058;-82
2021/06/30 06:05:46;;;;;;;17.65;11.75;;;;;;;17.76;95.99;100252.91;4970896;28;20053;-84
2021/06/30 06:08:15;;;;;;;15.07;12.23;;;;;;;17.73;95.33;100258.38;4957272;28;20050;-84
2021/06/30 06:10:43;;;;;;;17.67;11.88;;;;;;;17.65;95.44;100263.13;4960007;28;20038;-84
2021/06/30 06:13:10;;;;;;;15.80;12.38;;;;;;;17.53;96.12;100261.88;4954293;28;20055;-84
2021/06/30 06:15:38;;;;;;;14.50;12.20;;;;;;;17.43;96.47;100261.44;4969357;28;20098;-83
2021/06/30 06:18:09;;;;;;;21.35;12.48;;;;;;;17.40;96.67;100263.38;4966740;28;20061;-81
2021/06/30 06:20:38;;;;;;;17.13;11.65;;;;;;;17.34;96.65;100264.50;4988436;28;20066;-84
2021/06/30 06:23:07;;;;;;;17.10;11.85;;;;;;;17.36;96.80;100271.44;4960082;28;20046;-83
2021/06/30 06:25:33;;;;;;;14.38;10.98;;;;;;;17.34;96.67;100268.00;4969633;28;20794;-84
2021/06/30 06:28:04;;;;;;;17.88;12.35;;;;;;;17.34;96.58;100264.50;4962995;28;20047;-84
2021/06/30 06:30:34;;;;;;;17.40;11.60;;;;;;;17.35;96.76;100272.38;4972276;28;20038;-84
2021/06/30 06:33:00;;;;;;;14.35;10.85;;;;;;;17.38;96.24;100274.03;4963170;28;20043;-84
2021/06/30 06:35:27;;;;;;;13.75;11.20;;;;;;;17.39;96.57;100272.22;4960045;28;20054;-84
2021/06/30 06:37:55;;;;;;;13.13;10.27;;;;;;;17.30;96.25;100271.69;4955624;28;20047;-83
2021/06/30 06:40:21;;;;;;;14.88;10.02;;;;;;;17.16;96.68;100282.00;4939287;28;20043;-83
2021/06/30 06:42:51;;;;;;;19.13;10.50;;;;;;;17.06;97.99;100268.31;4973223;28;20255;-84
2021/06/30 06:45:26;;;;;;;16.15;10.70;;;;;;;16.96;98.65;100274.91;4972007;28;20046;-84
2021/06/30 06:47:55;;;;;;;12.40;10.48;;;;;;;16.90;98.99;100270.75;4956592;28;20042;-84
2021/06/30 06:50:22;;;;;;;14.48;9.43;;;;;;;16.89;98.84;100271.63;4970034;28;20069;-83
2021/06/30 06:52:51;;;;;;;17.90;10.85;;;;;;;16.84;98.81;100287.69;4944582;28;20056;-83
2021/06/30 06:55:18;;;;;;;12.68;10.18;;;;;;;16.79;99.44;100280.84;4974334;28;20037;-84
2021/06/30 06:57:46;;;;;;;13.82;10.70;;;;;;;16.74;99.71;100283.69;4970543;28;20440;-82
2021/06/30 07:00:14;;;;;;;16.20;9.88;;;;;;;16.72;99.54;100276.75;4988704;28;20073;-83
2021/06/30 07:02:41;;;;;;;11.15;8.73;;;;;;;16.69;99.37;100288.31;4959560;28;20051;-83
2021/06/30 07:05:10;;;;;;;12.77;7.95;;;;;;;16.67;98.97;100285.72;4953590;28;20051;-83
2021/06/30 07:07:44;;;;;;;12.48;8.55;;;;;;;16.64;99.31;100292.91;4977826;28;20056;-83
2021/06/30 07:10:14;;;;;;;10.80;8.20;;;;;;;16.67;99.64;100292.78;4959098;28;20101;-84
2021/06/30 07:12:41;;;;;;;10.23;6.97;;;;;;;16.71;98.83;100297.03;4943380;28;20052;-83
2021/06/30 07:15:11;;;;;;;12.50;8.00;;;;;;;16.73;98.60;100307.56;4989546;28;20137;-83
2021/06/30 07:17:39;;;;;;;12.27;8.15;;;;;;;16.73;98.54;100302.28;4987211;28;20042;-83
2021/06/30 07:20:08;;;;;;;10.10;6.55;;;;;;;16.74;98.71;100307.50;4960553;28;20054;-84
2021/06/30 07:22:35;;;;;;;7.65;6.22;;;;;;;16.70;98.65;100311.19;4969986;28;20047;-84
2021/06/30 07:25:04;;;;;;;5.80;5.05;;;;;;;16.71;98.11;100302.31;4973973;28;20057;-83
2021/06/30 07:27:31;;;;;;;8.38;5.68;;;;;;;16.73;98.19;100305.75;4965829;28;20058;-83
2021/06/30 07:30:00;;;;;;;7.50;5.57;;;;;;;16.76;97.79;100305.63;4959217;28;20049;-83
2021/06/30 07:32:27;;;;;;;8.73;6.60;;;;;;;16.77;98.34;100314.44;4960321;28;20042;-82
2021/06/30 07:34:54;;;;;;;6.65;5.88;;;;;;;16.77;98.18;100312.63;4985552;28;20038;-83
2021/06/30 07:37:20;;;;;;;8.80;6.05;;;;;;;16.77;98.55;100307.34;4971554;28;20056;-85
2021/06/30 07:39:47;;;;;;;10.27;6.78;;;;;;;16.74;98.51;100307.50;4977083;28;20038;-83
2021/06/30 07:42:18;;;;;;;9.65;6.80;;;;;;;16.69;99.70;100312.09;4942298;28;20046;-84
2021/06/30 07:44:46;;;;;;;9.30;6.65;;;;;;;16.62;99.56;100314.13;4993871;28;20595;-83
2021/06/30 07:47:16;;;;;;;10.88;6.82;;;;;;;16.61;100.00;100317.69;4974644;28;20042;-84
2021/06/30 07:49:43;;;;;;;10.65;7.63;;;;;;;16.58;100.00;100317.78;4959165;28;20054;-84
2021/06/30 07:52:10;;;;;;;12.95;7.70;;;;;;;16.56;100.00;100303.78;4961934;28;20603;-83
2021/06/30 07:54:37;;;;;;;11.98;6.75;;;;;;;16.49;100.00;100305.81;4987805;28;20153;-85
2021/06/30 07:57:04;;;;;;;10.63;6.90;;;;;;;16.45;100.00;100306.88;4973280;28;20046;-84
2021/06/30 07:59:33;;;;;;;11.93;8.10;;;;;;;16.44;100.00;100305.13;4961490;28;20057;-83
2021/06/30 08:02:01;;;;;;;10.02;8.02;;;;;;;16.49;100.00;100311.09;4974158;28;20046;-84
2021/06/30 08:04:28;;;;;;;13.57;7.70;;;;;;;16.52;100.00;100312.75;4972264;28;20043;-84
2021/06/30 08:06:55;;;;;;;10.13;6.78;;;;;;;16.54;100.00;100314.44;4972007;28;20689;-83
2021/06/30 08:09:31;;;;;;;12.52;8.00;;;;;;;16.59;100.00;100327.44;4969639;28;20118;-83
2021/06/30 08:12:02;;;;;;;8.60;6.88;;;;;;;16.62;100.00;100327.34;4968815;28;20411;-84
2021/06/30 08:14:30;;;;;;;13.93;7.15;;;;;;;16.66;100.00;100328.94;4978215;28;20046;-84
2021/06/30 08:16:57;;;;;;;10.35;6.75;;;;;;;16.69;100.00;100335.88;4970238;28;20050;-84
2021/06/30 08:19:27;;;;;;;11.05;7.20;;;;;;;16.73;100.00;100326.91;4987569;28;20050;-83
2021/06/30 08:21:54;;;;;;;10.25;6.53;;;;;;;16.81;100.00;100334.53;4956086;28;20043;-84
2021/06/30 08:24:21;;;;;;;8.27;6.30;;;;;;;16.87;100.00;100335.13;4947746;28;20058;-84
2021/06/30 08:26:48;;;;;;;10.07;7.88;;;;;;;16.92;100.00;100336.75;4970913;28;20489;-84
2021/06/30 08:29:18;;;;;;;6.90;5.72;;;;;;;16.93;100.00;100326.13;4971962;28;20053;-84
2021/06/30 08:31:47;;;;;;;7.78;5.97;;;;;;;17.01;100.00;100331.97;4976347;28;20497;-84
2021/06/30 08:34:15;;;;;;;8.90;5.75;;;;;;;17.09;100.00;100329.03;4974308;28;20053;-84
2021/06/30 08:36:42;;;;;;;10.43;6.75;;;;;;;17.15;100.00;100335.84;4974502;28;20058;-84
2021/06/30 08:39:10;;;;;;;8.98;6.38;;;;;;;17.19;99.37;100332.13;4987928;28;20153;-83
2021/06/30 08:41:39;;;;;;;7.05;5.82;;;;;;;17.18;98.92;100333.03;4956627;28;20084;-83
2021/06/30 08:44:06;;;;;;;8.10;6.10;;;;;;;17.19;98.62;100333.00;4975774;28;20125;-84
2021/06/30 08:46:34;;;;;;;8.55;5.35;;;;;;;17.23;98.54;100333.72;4962269;28;20054;-83
2021/06/30 08:49:05;;;;;;;7.20;5.38;;;;;;;17.34;98.39;100342.06;4975261;28;20038;-84
2021/06/30 08:51:34;;;;;;;10.40;6.82;;;;;;;17.49;97.45;100345.84;4972188;28;20817;-85
2021/06/30 08:54:08;;;;;;;10.70;6.38;;;;;;;17.58;97.19;100338.44;4975580;28;20045;-85
2021/06/30 08:56:40;;;;;;;13.10;6.78;;;;;;;17.67;96.10;100335.41;4960189;28;20051;-84
2021/06/30 08:59:08;;;;;;;9.73;7.10;;;;;;;17.83;96.11;100339.09;4980864;28;20054;-85
2021/06/30 09:01:37;;;;;;;7.25;5.68;;;;;;;18.04;95.68;100336.44;4972493;28;20061;-84
2021/06/30 09:04:06;;;;;;;10.27;6.18;;;;;;;18.18;94.46;100338.47;4981536;28;20486;-84
2021/06/30 09:06:35;;;;;;;5.93;4.90;;;;;;;18.37;93.97;100335.84;4962223;28;20051;-84
2021/06/30 09:12:01;;;;;;;5.85;5.03;;;;;;;18.52;91.96;100334.25;4987314;28;20066;-84
2021/06/30 09:14:36;;;;;;;7.80;5.55;;;;;;;18.52;91.84;100340.41;4988552;28;20051;-82
2021/06/30 09:20:08;;;;;;;5.88;5.30;;;;;;;18.61;91.37;100332.94;4988449;28;20056;-84
2021/06/30 09:22:51;;;;;;;8.35;5.65;;;;;;;18.65;90.95;100335.38;4969744;28;20066;-85
2021/06/30 09:25:28;;;;;;;6.75;5.35;;;;;;;18.66;89.63;100339.75;4961848;28;20070;-84
2021/06/30 09:27:56;;;;;;;8.02;5.85;;;;;;;18.62;88.10;100339.97;4971194;28;20045;-84
2021/06/30 09:30:24;;;;;;;7.68;5.35;;;;;;;18.61;89.13;100346.22;4971115;28;20042;-84
2021/06/30 09:32:58;;;;;;;6.07;4.93;;;;;;;18.69;88.85;100336.09;4967870;28;20052;-84
2021/06/30 09:35:32;;;;;;;6.53;5.05;;;;;;;18.82;88.29;100341.66;4986057;28;20038;-84
2021/06/30 09:38:01;;;;;;;7.97;5.65;;;;;;;18.93;87.21;100336.75;4984403;28;20042;-84
2021/06/30 09:40:48;;;;;;;5.07;4.55;;;;;;;19.00;86.97;100335.47;4966800;28;20046;-85
2021/06/30 09:43:45;;;;;;;8.43;5.28;;;;;;;18.99;83.99;100351.47;4968500;28;20053;-83
2021/06/30 09:46:25;;;;;;;7.35;5.90;;;;;;;18.96;85.37;100341.88;4968524;28;20571;-85
2021/06/30 09:49:04;;;;;;;7.55;5.30;;;;;;;18.95;85.21;100341.97;4958936;28;20111;-84
2021/06/30 09:51:32;;;;;;;7.97;5.78;;;;;;;18.98;85.22;100339.16;4954072;28;20038;-83
2021/06/30 09:54:13;;;;;;;6.50;5.82;;;;;;;18.96;84.74;100343.69;4973712;28;20077;-83
2021/06/30 09:56:55;;;;;;;6.05;5.50;;;;;;;18.97;84.70;100340.09;4963790;28;20078;-82
2021/06/30 09:59:25;;;;;;;5.72;5.22;;;;;;;19.09;85.00;100341.28;4956799;28;20058;-83
2021/06/30 10:02:06;;;;;;;8.85;6.20;;;;;;;19.16;83.43;100338.25;4970090;28;20058;-86
2021/06/30 10:04:39;;;;;;;9.10;6.75;;;;;;;19.22;84.11;100338.88;4972570;28;20062;-83
2021/06/30 10:07:23;;;;;;;9.65;6.43;;;;;;;19.28;84.20;100339.44;4955170;28;20050;-86
2021/06/30 10:09:50;;;;;;;8.98;6.20;;;;;;;19.38;83.87;100338.97;4951748;28;20059;-84
2021/06/30 10:12:24;;;;;;;7.30;5.75;;;;;;;19.42;83.13;100344.03;4965336;28;20371;-83
2021/06/30 10:14:54;;;;;;;8.13;6.43;;;;;;;19.46;82.36;100345.63;4964309;28;20070;-83
2021/06/30 10:17:23;;;;;;;9.00;7.75;;;;;;;19.47;81.72;100352.63;4985056;28;20133;-83
2021/06/30 10:19:53;;;;;;;7.68;6.97;;;;;;;19.50;81.95;100357.78;4972061;28;20054;-84
2021/06/30 10:22:24;;;;;;;9.05;8.10;;;;;;;19.51;81.53;100348.84;4968913;28;20038;-82
2021/06/30 10:24:54;;;;;;;13.68;7.90;;;;;;;19.41;79.86;100360.03;4977590;28;20053;-84
2021/06/30 10:27:22;;;;;;;9.82;7.63;;;;;;;19.34;81.75;100351.53;4961988;28;20049;-83
2021/06/30 10:30:00;;;;;;;11.55;7.82;;;;;;;19.31;80.80;100349.88;4977712;28;20160;-83
2021/06/30 10:32:29;;;;;;;8.65;7.70;;;;;;;19.26;82.12;100356.38;4971342;28;20053;-85
2021/06/30 10:35:04;;;;;;;8.32;7.38;;;;;;;19.20;82.20;100354.84;4963373;28;20299;-82
2021/06/30 10:37:36;;;;;;;8.77;7.95;;;;;;;19.19;82.26;100355.81;4943079;28;20092;-82
2021/06/30 10:40:10;;;;;;;8.55;6.97;;;;;;;19.19;83.00;100355.81;4977599;28;20098;-84
2021/06/30 10:42:49;;;;;;;9.05;8.23;;;;;;;19.30;82.69;100356.13;4994100;28;20057;-82
2021/06/30 10:45:22;;;;;;;9.32;8.05;;;;;;;19.36;81.78;100362.06;4970979;28;20080;-84
2021/06/30 10:47:55;;;;;;;9.43;8.25;;;;;;;19.36;82.28;100365.59;4986938;28;20050;-85
2021/06/30 10:51:07;;;;;;;7.85;7.05;;;;;;;19.43;83.29;100361.66;4987021;28;20413;-84
2021/06/30 10:53:40;;;;;;;8.65;7.85;;;;;;;19.59;83.25;100363.56;4984482;28;20050;-84
2021/06/30 10:56:10;;;;;;;11.00;8.00;;;;;;;19.60;82.88;100360.81;4958004;28;20078;-84
2021/06/30 10:58:39;;;;;;;10.45;9.10;;;;;;;19.60;82.65;100362.63;4962496;28;20042;-83
2021/06/30 11:01:15;;;;;;;9.15;8.25;;;;;;;19.63;83.04;100362.44;4986770;28;20046;-83
2021/06/30 11:03:49;;;;;;;7.30;6.60;;;;;;;19.70;83.11;100355.03;4962009;28;20228;-84
2021/06/30 11:06:17;;;;;;;10.02;8.88;;;;;;;19.62;82.38;100360.72;4978156;28;20137;-84
2021/06/30 11:09:06;;;;;;;9.10;8.30;;;;;;;19.52;82.46;100363.00;4989324;28;20041;-81
2021/06/30 11:11:55;;;;;;;9.35;8.40;;;;;;;19.49;83.31;100368.50;4976095;28;20515;-83
2021/06/30 11:14:39;;;;;;;8.70;7.80;;;;;;;19.51;84.00;100364.78;4969086;28;20038;-83
2021/06/30 11:17:08;;;;;;;11.55;10.23;;;;;;;19.51;84.29;100370.09;4951835;28;20057;-83
2021/06/30 11:19:40;;;;;;;9.75;8.82;;;;;;;19.51;84.84;100364.78;4970956;28;20050;-85
2021/06/30 11:22:31;;;;;;;12.02;9.05;;;;;;;19.53;84.10;100369.16;4973536;28;20502;-85
2021/06/30 11:25:00;;;;;;;8.57;7.78;;;;;;;19.51;84.40;100363.94;4972717;28;20046;-83
2021/06/30 11:27:28;;;;;;;9.48;8.57;;;;;;;19.44;84.08;100370.50;4983245;28;20055;-83
2021/06/30 11:30:02;;;;;;;9.30;8.38;;;;;;;19.35;83.62;100371.81;4987460;28;20046;-83
2021/06/30 11:32:32;;;;;;;9.20;8.30;;;;;;;19.30;84.06;100373.84;4962543;28;20042;-83
2021/06/30 11:35:11;;;;;;;9.93;8.60;;;;;;;19.25;84.20;100366.09;4971384;28;20054;-83